createdAt,value
2018-11-03T05:01:01.849Z,4.33
2018-11-03T05:02:01.718Z,4.36
2018-11-03T05:03:54.402Z,4.48
2018-11-03T05:04:54.276Z,4.46
2018-11-03T05:06:46.936Z,4.47
2018-11-03T05:07:46.820Z,4.46
2018-11-03T05:09:39.507Z,4.42
2018-11-03T05:10:39.370Z,4.47
2018-11-03T05:12:32.037Z,4.44
2018-11-03T05:13:31.915Z,4.51
2018-11-03T05:15:24.605Z,4.51
2018-11-03T05:16:24.468Z,4.61
2018-11-03T05:18:17.157Z,4.50
2018-11-03T05:19:17.033Z,4.48
2018-11-03T05:21:09.729Z,4.60
2018-11-03T05:22:09.581Z,4.47
2018-11-03T05:24:02.275Z,4.47
2018-11-03T05:25:02.135Z,4.39
2018-11-03T05:26:54.807Z,4.44
2018-11-03T05:27:54.682Z,4.22
2018-11-03T05:29:47.371Z,4.33
2018-11-03T05:30:47.231Z,4.29
2018-11-03T05:32:39.894Z,4.28
2018-11-03T05:33:39.784Z,4.26
2018-11-03T05:35:32.456Z,4.24
2018-11-03T05:36:32.333Z,4.24
2018-11-03T05:38:25.008Z,4.22
2018-11-03T05:39:24.878Z,4.26
2018-11-03T05:41:17.545Z,4.12
2018-11-03T05:42:17.427Z,4.24
2018-11-03T05:44:10.106Z,4.26
2018-11-03T05:45:09.973Z,4.21
2018-11-03T05:47:02.682Z,4.24
2018-11-03T05:48:02.531Z,4.15
2018-11-03T05:49:55.201Z,4.22
2018-11-03T05:50:55.079Z,4.20
2018-11-03T05:52:47.752Z,4.32
2018-11-03T05:53:47.621Z,4.33
2018-11-03T05:55:40.285Z,4.32
2018-11-03T05:56:40.165Z,4.32
2018-11-03T05:58:32.859Z,4.28
2018-11-03T05:59:32.721Z,4.39
2018-11-03T06:01:25.378Z,4.47
2018-11-03T06:02:25.264Z,4.40
2018-11-03T06:04:17.941Z,4.48
2018-11-03T06:05:17.814Z,4.48
2018-11-03T06:07:10.472Z,4.50
2018-11-03T06:08:10.355Z,4.50
2018-11-03T06:10:03.035Z,4.50
2018-11-03T06:11:02.900Z,4.44
2018-11-03T06:12:55.579Z,4.57
2018-11-03T06:13:55.448Z,4.61
2018-11-03T06:15:48.118Z,4.60
2018-11-03T06:16:48.001Z,4.61
2018-11-03T06:18:40.681Z,4.60
2018-11-03T06:19:40.547Z,4.54
2018-11-03T06:21:33.209Z,4.58
2018-11-03T06:22:33.116Z,4.57
2018-11-03T06:24:25.770Z,4.60
2018-11-03T06:25:25.651Z,4.42
2018-11-03T06:27:18.316Z,4.48
2018-11-03T06:28:18.192Z,4.38
2018-11-03T06:30:10.871Z,4.39
2018-11-03T06:31:10.741Z,4.38
2018-11-03T06:33:03.975Z,4.38
2018-11-03T06:34:03.849Z,4.35
2018-11-03T06:35:56.504Z,4.40
2018-11-03T06:36:56.393Z,4.38
2018-11-03T06:38:49.100Z,4.36
2018-11-03T06:39:48.941Z,4.38
2018-11-03T06:41:41.594Z,4.38
2018-11-03T06:42:41.484Z,4.38
2018-11-03T06:44:34.161Z,4.36
2018-11-03T06:45:34.027Z,4.39
2018-11-03T06:47:26.773Z,4.44
2018-11-03T06:48:26.578Z,4.48
2018-11-03T06:50:19.258Z,4.58
2018-11-03T06:51:19.128Z,4.64
2018-11-03T06:53:11.811Z,4.60
2018-11-03T06:54:11.681Z,4.60
2018-11-03T06:56:04.355Z,4.69
2018-11-03T06:57:04.229Z,4.58
2018-11-03T06:58:56.910Z,4.83
2018-11-03T06:59:56.768Z,4.61
2018-11-03T07:01:49.435Z,4.72
2018-11-03T07:02:49.372Z,4.85
2018-11-03T07:04:42.003Z,4.98
2018-11-03T07:05:41.871Z,4.95
2018-11-03T07:07:34.532Z,4.87
2018-11-03T07:08:34.424Z,4.97
2018-11-03T07:10:27.112Z,5.02
2018-11-03T07:11:27.011Z,5.02
2018-11-03T07:13:19.695Z,5.08
2018-11-03T07:14:19.514Z,5.13
2018-11-03T07:16:12.195Z,5.30
2018-11-03T07:17:12.068Z,5.30
2018-11-03T07:19:04.748Z,5.31
2018-11-03T07:20:04.651Z,5.34
2018-11-03T07:21:57.288Z,5.45
2018-11-03T07:22:57.174Z,5.46
2018-11-03T07:24:49.858Z,5.49
2018-11-03T07:25:49.761Z,5.52
2018-11-03T07:27:42.397Z,5.57
2018-11-03T07:28:42.283Z,5.70
2018-11-03T07:30:34.962Z,5.78
2018-11-03T07:31:34.826Z,5.80
2018-11-03T07:33:27.486Z,5.82
2018-11-03T07:34:27.372Z,5.87
2018-11-03T07:36:20.045Z,5.92
2018-11-03T07:37:19.918Z,5.95
2018-11-03T07:39:12.608Z,6.00
2018-11-03T07:40:12.483Z,5.91
2018-11-03T07:42:05.145Z,6.00
2018-11-03T07:43:05.022Z,5.99
2018-11-03T07:44:57.723Z,6.03
2018-11-03T07:45:57.580Z,5.98
2018-11-03T07:47:50.773Z,6.02
2018-11-03T07:48:50.773Z,6.03
2018-11-03T07:50:43.301Z,6.10
2018-11-03T07:51:43.171Z,6.15
2018-11-03T07:53:35.834Z,6.17
2018-11-03T07:54:35.730Z,6.14
2018-11-03T07:56:28.415Z,6.21
2018-11-03T07:57:28.263Z,6.28
2018-11-03T07:59:20.968Z,6.28
2018-11-03T08:00:20.822Z,6.28
2018-11-03T08:02:13.491Z,6.28
2018-11-03T08:03:13.380Z,6.28
2018-11-03T08:05:06.074Z,6.26
2018-11-03T08:06:05.932Z,6.28
2018-11-03T08:07:58.597Z,6.29
2018-11-03T08:08:58.498Z,6.29
2018-11-03T08:10:51.159Z,6.33
2018-11-03T08:11:51.032Z,6.25
2018-11-03T08:13:43.694Z,6.29
2018-11-03T08:14:43.583Z,6.29
2018-11-03T08:16:36.273Z,6.29
2018-11-03T08:17:36.130Z,6.34
2018-11-03T08:19:28.806Z,6.34
2018-11-03T08:20:28.680Z,6.37
2018-11-03T08:22:21.342Z,6.36
2018-11-03T08:23:21.231Z,6.34
2018-11-03T08:25:13.906Z,6.43
2018-11-03T08:26:13.780Z,6.39
2018-11-03T08:28:06.486Z,6.40
2018-11-03T08:29:06.325Z,6.43
2018-11-03T08:30:59.011Z,6.37
2018-11-03T08:31:58.928Z,6.42
2018-11-03T08:33:51.550Z,6.42
2018-11-03T08:34:51.440Z,6.43
2018-11-03T08:36:44.250Z,6.42
2018-11-03T08:37:44.063Z,6.52
2018-11-03T08:39:36.723Z,6.52
2018-11-03T08:40:36.553Z,6.58
2018-11-03T08:42:29.214Z,6.55
2018-11-03T08:43:29.095Z,6.61
2018-11-03T08:45:21.773Z,6.70
2018-11-03T08:46:21.637Z,6.64
2018-11-03T08:48:14.337Z,6.86
2018-11-03T08:49:14.187Z,6.85
2018-11-03T08:51:06.872Z,6.83
2018-11-03T08:52:06.736Z,6.80
2018-11-03T08:53:59.428Z,6.90
2018-11-03T08:54:59.298Z,6.94
2018-11-03T08:56:51.984Z,6.97
2018-11-03T08:57:51.846Z,6.97
2018-11-03T08:59:44.653Z,6.98
2018-11-03T09:00:44.402Z,7.09
2018-11-03T09:02:37.079Z,7.15
2018-11-03T09:03:36.951Z,7.16
2018-11-03T09:05:30.128Z,7.31
2018-11-03T09:06:29.998Z,7.30
2018-11-03T09:08:22.677Z,7.31
2018-11-03T09:09:22.548Z,7.52
2018-11-03T09:11:15.237Z,7.49
2018-11-03T09:12:15.108Z,7.59
2018-11-03T09:14:07.772Z,7.55
2018-11-03T09:15:07.759Z,7.64
2018-11-03T09:17:00.339Z,7.68
2018-11-03T09:18:00.304Z,7.82
2018-11-03T09:19:52.912Z,7.85
2018-11-03T09:20:52.769Z,7.91
2018-11-03T09:22:45.513Z,7.99
2018-11-03T09:23:45.320Z,8.06
2018-11-03T09:25:38.007Z,8.07
2018-11-03T09:26:37.875Z,7.95
2018-11-03T09:28:30.544Z,8.07
2018-11-03T09:29:30.427Z,8.03
2018-11-03T09:31:23.110Z,8.06
2018-11-03T09:32:22.990Z,7.98
2018-11-03T09:34:15.682Z,8.10
2018-11-03T09:35:15.548Z,8.07
2018-11-03T09:37:08.230Z,8.09
2018-11-03T09:38:08.099Z,8.10
2018-11-03T09:40:00.938Z,8.10
2018-11-03T09:41:00.644Z,8.07
2018-11-03T09:42:53.336Z,8.16
2018-11-03T09:43:53.212Z,8.16
2018-11-03T09:45:45.916Z,8.10
2018-11-03T09:46:45.781Z,8.14
2018-11-03T09:48:39.480Z,8.07
2018-11-03T09:49:39.332Z,8.21
2018-11-03T09:51:32.013Z,8.16
2018-11-03T09:52:31.889Z,8.19
2018-11-03T09:54:24.585Z,8.10
2018-11-03T09:55:24.450Z,8.10
2018-11-03T09:57:17.108Z,8.09
2018-11-03T09:58:17.000Z,8.10
2018-11-03T10:00:09.690Z,8.24
2018-11-03T10:01:09.556Z,8.25
2018-11-03T10:03:02.224Z,8.22
2018-11-03T10:04:02.127Z,8.31
2018-11-03T10:05:54.791Z,8.31
2018-11-03T10:06:54.660Z,8.40
2018-11-03T10:08:47.323Z,8.39
2018-11-03T10:09:47.207Z,8.42
2018-11-03T10:11:39.891Z,8.40
2018-11-03T10:12:39.763Z,8.34
2018-11-03T10:14:32.446Z,8.36
2018-11-03T10:15:32.321Z,8.40
2018-11-03T10:17:24.991Z,8.40
2018-11-03T10:18:24.878Z,8.36
2018-11-03T10:20:17.557Z,8.39
2018-11-03T10:21:17.445Z,8.40
2018-11-03T10:23:10.139Z,8.52
2018-11-03T10:24:10.003Z,8.47
2018-11-03T10:26:02.685Z,8.46
2018-11-03T10:27:02.557Z,8.61
2018-11-03T10:28:55.226Z,8.61
2018-11-03T10:29:55.113Z,8.69
2018-11-03T10:31:47.882Z,8.87
2018-11-03T10:32:47.745Z,8.89
2018-11-03T10:34:41.449Z,8.94
2018-11-03T10:35:41.300Z,8.98
2018-11-03T10:37:33.970Z,8.86
2018-11-03T10:38:33.860Z,8.94
2018-11-03T10:40:26.542Z,8.95
2018-11-03T10:41:26.423Z,9.00
2018-11-03T10:43:19.084Z,9.05
2018-11-03T10:44:18.979Z,9.03
2018-11-03T10:46:11.696Z,9.03
2018-11-03T10:47:11.531Z,9.04
2018-11-03T10:49:04.214Z,9.03
2018-11-03T10:50:04.108Z,9.11
2018-11-03T10:51:56.790Z,9.16
2018-11-03T10:52:56.670Z,9.09
2018-11-03T10:54:49.371Z,9.12
2018-11-03T10:55:49.235Z,9.34
2018-11-03T10:57:41.901Z,9.41
2018-11-03T10:58:41.794Z,9.32
2018-11-03T11:00:34.483Z,9.44
2018-11-03T11:01:34.358Z,9.32
2018-11-03T11:03:27.059Z,9.45
2018-11-03T11:04:26.908Z,9.39
2018-11-03T11:06:19.587Z,9.48
2018-11-03T11:07:19.461Z,9.62
2018-11-03T11:09:12.133Z,9.57
2018-11-03T11:10:12.016Z,9.60
2018-11-03T11:12:04.704Z,9.62
2018-11-03T11:13:04.579Z,9.55
2018-11-03T11:14:57.246Z,9.48
2018-11-03T11:15:57.235Z,9.53
2018-11-03T11:17:49.822Z,9.56
2018-11-03T11:18:49.700Z,9.56
2018-11-03T11:20:42.392Z,9.67
2018-11-03T11:21:42.263Z,9.66
2018-11-03T11:23:35.005Z,9.52
2018-11-03T11:24:34.832Z,9.53
2018-11-03T11:26:27.510Z,9.67
2018-11-03T11:27:27.441Z,9.67
2018-11-03T11:29:20.044Z,9.74
2018-11-03T11:30:19.940Z,9.81
2018-11-03T11:32:12.624Z,9.74
2018-11-03T11:33:12.495Z,9.75
2018-11-03T11:35:05.190Z,9.84
2018-11-03T11:36:05.061Z,9.81
2018-11-03T11:37:57.742Z,9.85
2018-11-03T11:38:57.625Z,9.85
2018-11-03T11:40:50.305Z,9.98
2018-11-03T11:41:50.179Z,9.96
2018-11-03T11:43:42.862Z,10.11
2018-11-03T11:44:42.738Z,10.07
2018-11-03T11:46:35.426Z,10.15
2018-11-03T11:47:35.307Z,10.11
2018-11-03T11:49:27.970Z,10.29
2018-11-03T11:50:27.858Z,10.18
2018-11-03T11:52:20.542Z,10.26
2018-11-03T11:53:20.411Z,10.25
2018-11-03T11:55:13.084Z,10.36
2018-11-03T11:56:12.979Z,10.36
2018-11-03T11:58:05.659Z,10.41
2018-11-03T11:59:05.537Z,10.41
2018-11-03T12:00:58.251Z,10.49
2018-11-03T12:01:58.092Z,10.49
2018-11-03T12:03:50.757Z,10.52
2018-11-03T12:04:50.657Z,10.57
2018-11-03T12:06:43.333Z,10.58
2018-11-03T12:07:43.206Z,10.61
2018-11-03T12:09:35.962Z,10.70
2018-11-03T12:10:35.852Z,10.76
2018-11-03T12:12:28.537Z,10.79
2018-11-03T12:13:28.411Z,10.77
2018-11-03T12:15:21.083Z,10.77
2018-11-03T12:16:21.143Z,10.84
2018-11-03T12:18:13.646Z,10.85
2018-11-03T12:19:13.519Z,10.84
2018-11-03T12:21:06.210Z,10.66
2018-11-03T12:22:06.078Z,10.76
2018-11-03T12:23:58.754Z,10.69
2018-11-03T12:24:58.637Z,10.72
2018-11-03T12:26:52.321Z,10.72
2018-11-03T12:27:52.194Z,10.83
2018-11-03T12:29:44.896Z,10.84
2018-11-03T12:30:44.763Z,10.83
2018-11-03T12:32:37.450Z,10.90
2018-11-03T12:33:37.325Z,10.92
2018-11-03T12:35:30.016Z,11.00
2018-11-03T12:36:29.877Z,10.97
2018-11-03T12:38:22.560Z,10.98
2018-11-03T12:39:22.451Z,10.95
2018-11-03T12:41:15.205Z,10.98
2018-11-03T12:42:15.003Z,10.88
2018-11-03T12:44:07.688Z,10.90
2018-11-03T12:45:07.573Z,10.75
2018-11-03T12:47:00.264Z,10.80
2018-11-03T12:48:00.206Z,10.83
2018-11-03T12:49:52.821Z,10.91
2018-11-03T12:50:52.702Z,11.16
2018-11-03T12:52:45.408Z,11.86
2018-11-03T12:53:45.265Z,11.82
2018-11-03T12:55:37.965Z,11.46
2018-11-03T12:56:37.829Z,11.42
2018-11-03T12:58:30.514Z,11.48
2018-11-03T12:59:30.398Z,11.27
2018-11-03T13:01:23.091Z,11.16
2018-11-03T13:02:22.957Z,11.23
2018-11-03T13:04:15.626Z,11.24
2018-11-03T13:05:15.708Z,11.16
2018-11-03T13:07:08.210Z,11.24
2018-11-03T13:08:08.083Z,11.18
2018-11-03T13:10:00.767Z,11.15
2018-11-03T13:11:00.637Z,11.20
2018-11-03T13:12:53.319Z,11.05
2018-11-03T13:13:53.193Z,11.03
2018-11-03T13:15:45.882Z,11.08
2018-11-03T13:16:45.759Z,11.13
2018-11-03T13:18:38.468Z,11.00
2018-11-03T13:19:38.333Z,10.92
2018-11-03T13:21:31.021Z,11.00
2018-11-03T13:22:30.922Z,11.03
2018-11-03T13:24:23.568Z,10.95
2018-11-03T13:25:23.457Z,10.95
2018-11-03T13:27:16.138Z,10.87
2018-11-03T13:28:16.010Z,10.91
2018-11-03T13:30:08.780Z,10.84
2018-11-03T13:31:08.572Z,10.94
2018-11-03T13:33:01.262Z,10.83
2018-11-03T13:34:01.134Z,10.80
2018-11-03T13:35:53.808Z,10.79
2018-11-03T13:36:53.696Z,10.72
2018-11-03T13:38:46.376Z,10.66
2018-11-03T13:39:46.251Z,10.76
2018-11-03T13:41:38.942Z,10.63
2018-11-03T13:42:38.814Z,10.72
2018-11-03T13:44:31.490Z,10.69
2018-11-03T13:45:31.376Z,10.69
2018-11-03T13:47:24.181Z,10.65
2018-11-03T13:48:23.936Z,10.67
2018-11-03T13:50:16.608Z,10.61
2018-11-03T13:51:16.501Z,10.63
2018-11-03T13:53:09.178Z,10.65
2018-11-03T13:54:09.056Z,10.61
2018-11-03T13:56:01.728Z,10.63
2018-11-03T13:57:01.737Z,10.66
2018-11-03T13:58:54.304Z,10.51
2018-11-03T13:59:54.181Z,10.61
2018-11-03T14:01:46.864Z,10.51
2018-11-03T14:02:46.746Z,10.55
2018-11-03T14:04:39.414Z,10.57
2018-11-03T14:05:39.298Z,10.63
2018-11-03T14:07:31.994Z,10.49
2018-11-03T14:08:31.859Z,10.39
2018-11-03T14:10:24.525Z,10.57
2018-11-03T14:11:24.418Z,10.46
2018-11-03T14:13:17.098Z,10.57
2018-11-03T14:14:16.980Z,10.61
2018-11-03T14:16:09.652Z,10.58
2018-11-03T14:17:09.596Z,10.39
2018-11-03T14:19:02.217Z,10.52
2018-11-03T14:20:02.088Z,10.47
2018-11-03T14:21:54.780Z,10.41
2018-11-03T14:22:54.651Z,10.54
2018-11-03T14:24:47.327Z,10.47
2018-11-03T14:25:47.222Z,10.31
2018-11-03T14:27:39.930Z,10.39
2018-11-03T14:28:39.778Z,10.41
2018-11-03T14:30:32.447Z,10.33
2018-11-03T14:31:32.334Z,10.36
2018-11-03T14:33:25.037Z,10.35
2018-11-03T14:34:24.895Z,10.36
2018-11-03T14:36:17.708Z,10.35
2018-11-03T14:37:17.455Z,10.35
2018-11-03T14:39:10.133Z,10.32
2018-11-03T14:40:10.007Z,10.28
2018-11-03T14:42:03.692Z,10.25
2018-11-03T14:43:03.562Z,10.25
2018-11-03T14:44:56.396Z,10.25
2018-11-03T14:45:56.177Z,10.14
2018-11-03T14:47:48.800Z,10.07
2018-11-03T14:48:48.672Z,10.17
2018-11-03T14:50:41.348Z,10.07
2018-11-03T14:51:41.234Z,10.08
2018-11-03T14:53:33.918Z,10.10
2018-11-03T14:54:33.793Z,10.07
2018-11-03T14:56:26.494Z,10.10
2018-11-03T14:57:26.351Z,10.00
2018-11-03T14:59:19.024Z,10.08
2018-11-03T15:00:18.911Z,10.10
2018-11-03T15:02:11.600Z,10.03
2018-11-03T15:03:11.465Z,9.92
2018-11-03T15:05:04.138Z,9.95
2018-11-03T15:06:04.032Z,9.84
2018-11-03T15:07:56.711Z,9.99
2018-11-03T15:08:56.580Z,9.84
2018-11-03T15:10:49.248Z,9.82
2018-11-03T15:11:49.137Z,9.85
2018-11-03T15:13:42.129Z,9.84
2018-11-03T15:14:41.751Z,9.71
2018-11-03T15:16:34.380Z,9.70
2018-11-03T15:17:34.251Z,9.66
2018-11-03T15:19:26.925Z,9.67
2018-11-03T15:20:26.823Z,9.66
2018-11-03T15:22:19.569Z,9.66
2018-11-03T15:23:19.368Z,9.64
2018-11-03T15:25:12.042Z,9.53
2018-11-03T15:26:11.933Z,9.64
2018-11-03T15:28:04.610Z,9.56
2018-11-03T15:29:04.479Z,9.57
2018-11-03T15:30:57.149Z,9.52
2018-11-03T15:31:57.045Z,9.41
2018-11-03T15:33:49.731Z,9.32
2018-11-03T15:34:49.624Z,9.27
2018-11-03T15:36:42.285Z,9.29
2018-11-03T15:37:42.159Z,9.09
2018-11-03T15:39:34.821Z,9.08
2018-11-03T15:40:34.713Z,9.05
2018-11-03T15:42:27.432Z,9.00
2018-11-03T15:43:27.276Z,8.92
2018-11-03T15:45:19.946Z,8.83
2018-11-03T15:46:19.825Z,8.74
2018-11-03T15:48:12.527Z,8.60
2018-11-03T15:49:12.399Z,8.65
2018-11-03T15:51:05.072Z,8.53
2018-11-03T15:52:05.254Z,8.58
2018-11-03T15:53:57.685Z,8.50
2018-11-03T15:54:57.557Z,8.50
2018-11-03T15:56:50.257Z,8.49
2018-11-03T15:57:50.109Z,8.39
2018-11-03T15:59:42.822Z,8.28
2018-11-03T16:00:42.674Z,8.17
2018-11-03T16:02:35.361Z,8.22
2018-11-03T16:03:35.249Z,8.14
2018-11-03T16:05:27.929Z,8.10
2018-11-03T16:06:27.812Z,8.10
2018-11-03T16:08:20.498Z,7.92
2018-11-03T16:09:20.365Z,7.92
2018-11-03T16:11:13.040Z,7.95
2018-11-03T16:12:13.032Z,7.92
2018-11-03T16:14:05.765Z,7.86
2018-11-03T16:15:05.682Z,7.88
2018-11-03T16:16:58.166Z,7.88
2018-11-03T16:17:58.044Z,7.78
2018-11-03T16:19:50.717Z,7.77
2018-11-03T16:20:50.604Z,7.73
2018-11-03T16:22:43.404Z,7.63
2018-11-03T16:23:43.149Z,7.58
2018-11-03T16:25:36.815Z,7.61
2018-11-03T16:26:36.696Z,7.58
2018-11-03T16:28:29.533Z,7.54
2018-11-03T16:29:29.326Z,7.47
2018-11-03T16:31:21.932Z,7.47
2018-11-03T16:32:22.092Z,7.52
2018-11-03T16:34:14.510Z,7.39
2018-11-03T16:35:14.385Z,7.41
2018-11-03T16:37:07.065Z,7.41
2018-11-03T16:38:07.002Z,7.37
2018-11-03T16:39:59.631Z,7.31
2018-11-03T16:40:59.518Z,7.30
2018-11-03T16:42:52.208Z,7.34
2018-11-03T16:43:52.080Z,7.31
2018-11-03T16:45:44.755Z,7.31
2018-11-03T16:46:44.634Z,7.31
2018-11-03T16:48:37.303Z,7.30
2018-11-03T16:49:37.175Z,7.31
2018-11-03T16:51:29.849Z,7.23
2018-11-03T16:52:29.778Z,7.18
2018-11-03T16:54:22.429Z,7.09
2018-11-03T16:55:22.339Z,7.08
2018-11-03T16:57:15.002Z,7.11
2018-11-03T16:58:14.848Z,7.11
2018-11-03T17:00:07.513Z,7.12
2018-11-03T17:01:07.396Z,7.05
2018-11-03T17:03:00.110Z,7.09
2018-11-03T17:03:59.960Z,7.04
2018-11-03T17:05:52.624Z,7.01
2018-11-03T17:06:52.527Z,6.93
2018-11-03T17:08:45.203Z,6.97
2018-11-03T17:09:45.069Z,7.04
2018-11-03T17:11:37.739Z,6.88
2018-11-03T17:12:37.710Z,6.94
2018-11-03T17:14:30.301Z,6.70
2018-11-03T17:15:30.173Z,6.76
2018-11-03T17:17:22.855Z,6.73
2018-11-03T17:18:22.725Z,6.68
2018-11-03T17:20:15.391Z,6.67
2018-11-03T17:21:15.280Z,6.70
2018-11-03T17:23:08.039Z,6.55
2018-11-03T17:24:07.823Z,6.55
2018-11-03T17:26:00.500Z,6.54
2018-11-03T17:27:00.386Z,6.52
2018-11-03T17:28:53.068Z,6.55
2018-11-03T17:29:52.934Z,6.61
2018-11-03T17:31:46.099Z,6.64
2018-11-03T17:32:45.986Z,6.60
2018-11-03T17:34:38.676Z,6.58
2018-11-03T17:35:38.525Z,6.58
2018-11-03T17:37:31.210Z,6.46
2018-11-03T17:38:31.078Z,6.44
2018-11-03T17:40:23.759Z,6.46
2018-11-03T17:41:23.627Z,6.36
2018-11-03T17:43:16.309Z,6.40
2018-11-03T17:44:16.351Z,6.37
2018-11-03T17:46:08.837Z,6.39
2018-11-03T17:47:08.726Z,6.39
2018-11-03T17:49:01.419Z,6.44
2018-11-03T17:50:01.268Z,6.40
2018-11-03T17:51:54.539Z,6.37
2018-11-03T17:52:54.411Z,6.40
2018-11-03T17:54:47.124Z,6.39
2018-11-03T17:55:46.957Z,6.29
2018-11-03T17:57:39.637Z,6.28
2018-11-03T17:58:39.504Z,6.21
2018-11-03T18:00:32.388Z,6.21
2018-11-03T18:01:32.240Z,6.26
2018-11-03T18:03:24.836Z,6.24
2018-11-03T18:04:24.707Z,6.26
2018-11-03T18:06:17.390Z,6.26
2018-11-03T18:07:17.311Z,6.25
2018-11-03T18:09:09.937Z,6.31
2018-11-03T18:10:09.804Z,6.18
2018-11-03T18:12:02.487Z,6.29
2018-11-03T18:13:02.431Z,6.20
2018-11-03T18:14:55.028Z,6.09
2018-11-03T18:15:54.908Z,6.13
2018-11-03T18:17:47.594Z,6.06
2018-11-03T18:18:47.465Z,6.14
2018-11-03T18:20:40.120Z,6.09
2018-11-03T18:21:40.012Z,6.06
2018-11-03T18:23:32.709Z,6.17
2018-11-03T18:24:32.567Z,6.14
2018-11-03T18:26:25.271Z,6.02
2018-11-03T18:27:25.116Z,5.92
2018-11-03T18:29:17.799Z,5.89
2018-11-03T18:30:17.670Z,5.96
2018-11-03T18:32:10.349Z,5.98
2018-11-03T18:33:10.299Z,6.09
2018-11-03T18:35:02.889Z,6.00
2018-11-03T18:36:02.776Z,6.02
2018-11-03T18:37:55.522Z,5.96
2018-11-03T18:38:55.317Z,5.98
2018-11-03T18:40:47.987Z,5.92
2018-11-03T18:41:47.975Z,5.85
2018-11-03T18:43:40.565Z,5.81
2018-11-03T18:44:40.427Z,5.82
2018-11-03T18:46:33.133Z,5.82
2018-11-03T18:47:32.969Z,5.73
2018-11-03T18:49:25.673Z,5.75
2018-11-03T18:50:25.550Z,5.78
2018-11-03T18:52:18.218Z,5.72
2018-11-03T18:53:18.101Z,5.70
2018-11-03T18:55:11.405Z,5.81
2018-11-03T18:56:10.638Z,5.70
2018-11-03T18:58:03.479Z,5.64
2018-11-03T18:59:03.184Z,5.62
2018-11-03T19:00:56.342Z,5.60
2018-11-03T19:01:56.227Z,5.59
2018-11-03T19:03:48.903Z,5.57
2018-11-03T19:04:48.770Z,5.57
2018-11-03T19:06:41.449Z,5.52
2018-11-03T19:07:41.328Z,5.52
2018-11-03T19:09:34.000Z,5.48
2018-11-03T19:10:33.879Z,5.39
2018-11-03T19:12:27.042Z,5.37
2018-11-03T19:13:26.913Z,5.49
2018-11-03T19:15:19.572Z,5.57
2018-11-03T19:16:19.460Z,5.57
2018-11-03T19:18:12.134Z,5.66
2018-11-03T19:19:12.008Z,5.60
2018-11-03T19:21:05.669Z,5.66
2018-11-03T19:22:05.556Z,5.59
2018-11-03T19:23:58.263Z,5.55
2018-11-03T19:24:58.097Z,5.52
2018-11-03T19:26:50.764Z,5.48
2018-11-03T19:27:50.682Z,5.37
2018-11-03T19:29:43.439Z,5.41
2018-11-03T19:30:43.208Z,5.41
2018-11-03T19:32:35.896Z,5.37
2018-11-03T19:33:35.751Z,5.41
2018-11-03T19:35:28.418Z,5.39
2018-11-03T19:36:28.299Z,5.31
2018-11-03T19:38:21.532Z,5.31
2018-11-03T19:39:21.342Z,5.16
2018-11-03T19:41:14.017Z,5.09
2018-11-03T19:42:13.901Z,5.20
2018-11-03T19:44:06.579Z,5.03
2018-11-03T19:45:06.458Z,5.02
2018-11-03T19:46:59.114Z,5.05
2018-11-03T19:47:59.010Z,5.02
2018-11-03T19:49:51.687Z,5.08
2018-11-03T19:50:51.558Z,5.09
2018-11-03T19:52:44.240Z,5.08
2018-11-03T19:53:44.112Z,5.24
2018-11-03T19:55:36.792Z,5.10
2018-11-03T19:56:36.659Z,5.21
2018-11-03T19:58:29.358Z,5.10
2018-11-03T19:59:29.223Z,5.02
2018-11-03T20:01:21.966Z,5.03
2018-11-03T20:02:21.859Z,5.02
2018-11-03T20:04:14.549Z,5.08
2018-11-03T20:05:14.414Z,5.05
2018-11-03T20:07:07.110Z,5.02
2018-11-03T20:08:06.986Z,5.06
2018-11-03T20:09:59.742Z,4.91
2018-11-03T20:10:59.540Z,4.94
2018-11-03T20:12:52.220Z,4.97
2018-11-03T20:13:52.135Z,4.90
2018-11-03T20:15:44.762Z,4.91
2018-11-03T20:16:44.643Z,4.87
2018-11-03T20:18:37.320Z,4.91
2018-11-03T20:19:37.194Z,4.78
2018-11-03T20:21:29.864Z,4.75
2018-11-03T20:22:29.756Z,4.72
2018-11-03T20:24:22.441Z,4.66
2018-11-03T20:25:22.314Z,4.78
2018-11-03T20:27:14.995Z,4.69
2018-11-03T20:28:14.879Z,4.78
2018-11-03T20:30:07.564Z,4.68
2018-11-03T20:31:07.431Z,4.69
2018-11-03T20:33:00.269Z,4.60
2018-11-03T20:33:59.984Z,4.65
2018-11-03T20:35:52.653Z,4.53
2018-11-03T20:36:52.535Z,4.61
2018-11-03T20:38:45.213Z,4.71
2018-11-03T20:39:45.082Z,4.50
2018-11-03T20:41:37.774Z,4.72
2018-11-03T20:42:37.631Z,4.61
2018-11-03T20:44:30.303Z,4.64
2018-11-03T20:45:30.182Z,4.65
2018-11-03T20:47:22.843Z,4.58
2018-11-03T20:48:22.726Z,4.61
2018-11-03T20:50:15.408Z,4.54
2018-11-03T20:51:15.281Z,4.57
2018-11-03T20:53:07.961Z,4.58
2018-11-03T20:54:07.825Z,4.58
2018-11-03T20:56:00.499Z,4.58
2018-11-03T20:57:00.377Z,4.58
2018-11-03T20:58:53.054Z,4.57
2018-11-03T20:59:52.924Z,4.51
2018-11-03T21:01:45.638Z,4.47
2018-11-03T21:02:45.475Z,4.60
2018-11-03T21:04:38.157Z,4.42
2018-11-03T21:05:38.036Z,4.42
2018-11-03T21:07:30.707Z,4.35
2018-11-03T21:08:30.576Z,4.46
2018-11-03T21:10:23.755Z,4.38
2018-11-03T21:11:23.625Z,4.38
2018-11-03T21:13:16.301Z,4.36
2018-11-03T21:14:16.182Z,4.39
2018-11-03T21:16:08.833Z,4.28
2018-11-03T21:17:08.719Z,4.33
2018-11-03T21:19:01.402Z,4.35
2018-11-03T21:20:01.267Z,4.29
2018-11-03T21:21:54.433Z,4.24
2018-11-03T21:22:54.409Z,4.26
2018-11-03T21:24:46.995Z,4.24
2018-11-03T21:25:46.863Z,4.22
2018-11-03T21:27:39.540Z,4.26
2018-11-03T21:28:39.420Z,4.28
2018-11-03T21:30:32.099Z,4.35
2018-11-03T21:31:31.983Z,4.44
2018-11-03T21:33:24.758Z,4.36
2018-11-03T21:34:24.538Z,4.42
2018-11-03T21:36:17.201Z,4.38
2018-11-03T21:37:17.079Z,4.30
2018-11-03T21:39:09.772Z,4.30
2018-11-03T21:40:09.639Z,4.35
2018-11-03T21:42:02.302Z,4.26
2018-11-03T21:43:02.189Z,4.22
2018-11-03T21:44:54.873Z,4.29
2018-11-03T21:45:54.817Z,4.24
2018-11-03T21:47:47.434Z,4.17
2018-11-03T21:48:47.293Z,4.21
2018-11-03T21:50:39.950Z,4.14
2018-11-03T21:51:39.841Z,4.04
2018-11-03T21:53:32.510Z,3.96
2018-11-03T21:54:32.407Z,4.00
2018-11-03T21:56:25.048Z,4.00
2018-11-03T21:57:24.943Z,3.97
2018-11-03T21:59:17.607Z,4.02
2018-11-03T22:00:17.478Z,3.92
2018-11-03T22:02:10.180Z,3.85
2018-11-03T22:03:10.035Z,3.92
2018-11-03T22:05:02.698Z,3.97
2018-11-03T22:06:02.578Z,4.00
2018-11-03T22:07:55.239Z,3.84
2018-11-03T22:08:55.117Z,3.99
2018-11-03T22:10:47.785Z,4.00
2018-11-03T22:11:47.665Z,3.97
2018-11-03T22:13:40.832Z,4.03
2018-11-03T22:14:40.706Z,3.86
2018-11-03T22:16:33.367Z,3.96
2018-11-03T22:17:33.256Z,3.93
2018-11-03T22:19:25.951Z,3.85
2018-11-03T22:20:25.814Z,3.82
2018-11-03T22:22:18.477Z,3.84
2018-11-03T22:23:18.363Z,3.84
2018-11-03T22:25:11.049Z,3.79
2018-11-03T22:26:10.909Z,3.79
2018-11-03T22:28:03.649Z,3.93
2018-11-03T22:29:03.452Z,3.90
2018-11-03T22:30:56.117Z,3.89
2018-11-03T22:31:56.013Z,3.92
2018-11-03T22:33:48.690Z,3.96
2018-11-03T22:34:48.551Z,3.96
2018-11-03T22:36:41.212Z,4.00
2018-11-03T22:37:41.092Z,3.92
2018-11-03T22:39:34.262Z,3.85
2018-11-03T22:40:34.133Z,3.84
2018-11-03T22:42:26.799Z,3.89
2018-11-03T22:43:26.676Z,3.82
2018-11-03T22:45:19.355Z,3.78
2018-11-03T22:46:19.258Z,3.81
2018-11-03T22:48:12.485Z,3.67
2018-11-03T22:49:12.356Z,3.67
2018-11-03T22:51:05.032Z,3.61
2018-11-03T22:52:04.978Z,3.72
2018-11-03T22:53:57.596Z,3.74
2018-11-03T22:54:57.476Z,3.75
2018-11-03T22:56:50.148Z,3.76
2018-11-03T22:57:50.006Z,3.71
2018-11-03T22:59:42.684Z,3.72
